createdAt,value
2022-11-18T00:04:55.242Z,7.47
2022-11-18T00:10:24.227Z,7.25
2022-11-18T00:15:48.277Z,8.88
2022-11-18T00:21:18.416Z,11.60
2022-11-18T00:26:44.074Z,8.73
2022-11-18T00:32:14.380Z,8.80
2022-11-18T00:37:37.660Z,10.13
2022-11-18T00:43:01.305Z,7.72
2022-11-18T00:48:31.722Z,8.80
2022-11-18T00:53:55.397Z,8.70
2022-11-18T00:59:24.012Z,7.33
2022-11-18T01:04:54.011Z,8.88
2022-11-18T01:10:23.203Z,7.43
2022-11-18T01:15:49.624Z,8.32
2022-11-18T01:21:20.398Z,7.97
2022-11-18T01:26:44.573Z,7.72
2022-11-18T01:32:29.314Z,7.65
2022-11-18T01:37:57.815Z,7.85
2022-11-18T01:43:26.635Z,8.02
2022-11-18T01:49:00.882Z,8.05
2022-11-18T01:54:41.075Z,8.70
2022-11-18T02:00:11.231Z,7.57
2022-11-18T02:05:41.735Z,7.72
2022-11-18T02:11:34.375Z,8.48
2022-11-18T02:17:13.143Z,8.15
2022-11-18T02:23:05.515Z,9.02
2022-11-18T02:28:53.733Z,8.88
2022-11-18T02:34:33.521Z,8.23
2022-11-18T02:40:08.608Z,8.25
2022-11-18T02:45:43.322Z,7.90
2022-11-18T02:51:18.015Z,9.30
2022-11-18T02:56:48.647Z,8.82
2022-11-18T03:02:21.245Z,8.60
2022-11-18T03:07:55.936Z,7.53
2022-11-18T03:13:36.108Z,7.82
2022-11-18T03:19:11.189Z,7.50
2022-11-18T03:24:43.860Z,7.00
2022-11-18T03:30:18.480Z,8.43
2022-11-18T03:35:52.838Z,9.98
2022-11-18T03:41:30.696Z,7.05
2022-11-18T03:47:05.570Z,7.25
2022-11-18T03:52:38.475Z,8.10
2022-11-18T03:58:13.951Z,7.32
2022-11-18T04:03:43.545Z,7.75
2022-11-18T04:09:24.092Z,9.77
2022-11-18T04:20:25.411Z,9.75
2022-11-18T04:25:55.217Z,8.37
2022-11-18T04:31:23.897Z,9.13
2022-11-18T04:36:53.114Z,10.30
2022-11-18T04:42:23.697Z,10.30
2022-11-18T04:47:52.972Z,10.18
2022-11-18T04:53:22.410Z,8.60
2022-11-18T04:58:52.209Z,8.63
2022-11-18T05:04:23.537Z,7.10
2022-11-18T05:09:53.144Z,9.32
2022-11-18T05:15:24.969Z,8.77
2022-11-18T05:20:54.406Z,9.25
2022-11-18T05:26:18.366Z,9.20
2022-11-18T05:31:43.900Z,8.88
2022-11-18T05:37:07.862Z,11.10
2022-11-18T05:42:49.826Z,11.13
2022-11-18T05:48:15.871Z,9.75
2022-11-18T05:53:41.089Z,8.82
2022-11-18T05:59:06.495Z,9.23
2022-11-18T06:04:41.808Z,9.48
2022-11-18T06:10:14.352Z,8.73
2022-11-18T06:15:45.956Z,9.68
2022-11-18T06:21:16.529Z,13.85
2022-11-18T06:26:46.950Z,11.10
2022-11-18T06:32:11.081Z,13.10
2022-11-18T06:37:37.786Z,11.55
2022-11-18T06:43:33.333Z,11.60
2022-11-18T06:49:03.924Z,12.45
2022-11-18T06:54:35.059Z,11.13
2022-11-18T07:00:02.221Z,10.98
2022-11-18T07:05:26.208Z,11.25
2022-11-18T07:10:55.242Z,12.18
2022-11-18T07:16:21.871Z,10.57
2022-11-18T07:21:52.179Z,9.80
2022-11-18T07:27:17.104Z,11.07
2022-11-18T07:32:41.190Z,7.70
2022-11-18T07:38:11.082Z,10.27
2022-11-18T07:43:36.714Z,8.10
2022-11-18T07:49:06.929Z,9.88
2022-11-18T07:54:30.936Z,11.65
2022-11-18T08:00:01.501Z,12.75
2022-11-18T08:05:41.067Z,11.93
2022-11-18T08:11:07.204Z,11.13
2022-11-18T08:16:32.539Z,11.48
2022-11-18T08:21:55.511Z,8.93
2022-11-18T08:27:19.228Z,11.07
2022-11-18T08:32:44.036Z,8.77
2022-11-18T08:38:07.270Z,9.18
2022-11-18T08:43:36.855Z,10.88
2022-11-18T08:49:03.647Z,9.98
2022-11-18T08:54:27.539Z,11.00
2022-11-18T08:59:50.845Z,9.00
2022-11-18T09:05:15.734Z,9.93
2022-11-18T09:10:41.155Z,11.25
2022-11-18T09:16:06.027Z,10.45
2022-11-18T09:21:34.621Z,10.75
2022-11-18T09:27:04.560Z,12.63
2022-11-18T09:32:28.344Z,11.55
2022-11-18T09:37:53.294Z,11.57
2022-11-18T09:43:27.255Z,17.38
2022-11-18T09:49:09.498Z,9.88
2022-11-18T09:54:38.334Z,9.75
2022-11-18T10:00:02.434Z,13.00
2022-11-18T10:05:49.660Z,17.80
2022-11-18T10:11:18.182Z,16.95
2022-11-18T10:16:52.752Z,16.17
2022-11-18T10:22:33.181Z,20.30
2022-11-18T10:28:14.939Z,21.40
2022-11-18T10:33:40.011Z,13.07
2022-11-18T10:39:21.479Z,13.07
2022-11-18T10:44:46.380Z,12.00
2022-11-18T10:50:31.297Z,11.98
2022-11-18T10:56:01.055Z,11.68
2022-11-18T11:01:31.467Z,12.50
2022-11-18T11:07:00.707Z,10.15
2022-11-18T11:18:34.639Z,10.20
2022-11-18T11:24:10.525Z,9.95
2022-11-18T11:30:10.272Z,15.15
2022-11-18T11:35:51.764Z,10.05
2022-11-18T11:41:24.069Z,11.70
2022-11-18T11:47:20.621Z,12.82
2022-11-18T11:53:15.683Z,14.27
2022-11-18T11:59:00.363Z,14.93
2022-11-18T12:04:40.578Z,15.32
2022-11-18T12:10:39.278Z,15.43
2022-11-18T12:16:22.845Z,14.30
2022-11-18T12:21:58.258Z,15.50
2022-11-18T12:28:00.237Z,16.20
2022-11-18T12:33:29.109Z,16.08
2022-11-18T12:38:59.457Z,16.65
2022-11-18T12:50:15.216Z,13.38
2022-11-18T12:55:43.765Z,14.00
2022-11-18T13:01:17.407Z,14.60
2022-11-18T13:06:46.390Z,15.13
2022-11-18T13:12:19.155Z,18.67
2022-11-18T13:17:55.683Z,15.57
2022-11-18T13:23:47.556Z,14.70
2022-11-18T13:29:31.911Z,15.65
2022-11-18T13:35:12.435Z,15.00
2022-11-18T13:41:04.283Z,20.80
2022-11-18T13:46:33.431Z,14.18
2022-11-18T13:52:03.587Z,15.13
2022-11-18T13:57:32.322Z,14.80
2022-11-18T14:03:04.092Z,16.20
2022-11-18T14:08:36.384Z,14.25
2022-11-18T14:14:05.498Z,13.68
2022-11-18T14:19:35.344Z,13.73
2022-11-18T14:25:19.787Z,13.88
2022-11-18T14:31:02.164Z,14.40
2022-11-18T14:36:31.259Z,13.25
2022-11-18T14:42:01.845Z,14.17
2022-11-18T14:47:34.085Z,11.95
2022-11-18T14:53:04.604Z,13.48
2022-11-18T14:58:35.943Z,17.35
2022-11-18T15:04:06.167Z,16.52
2022-11-18T15:09:35.249Z,13.57
2022-11-18T15:15:06.240Z,12.30
2022-11-18T15:20:38.428Z,14.48
2022-11-18T15:26:20.263Z,12.43
2022-11-18T15:31:51.023Z,12.88
2022-11-18T15:37:20.048Z,13.07
2022-11-18T15:42:52.247Z,13.43
2022-11-18T15:48:22.452Z,12.68
2022-11-18T15:54:02.011Z,13.82
2022-11-18T15:59:31.342Z,13.45
2022-11-18T16:05:01.560Z,14.83
2022-11-18T16:10:48.017Z,16.65
2022-11-18T16:16:20.830Z,15.93
2022-11-18T16:21:53.098Z,15.23
2022-11-18T16:27:22.320Z,14.98
2022-11-18T16:32:53.039Z,19.77
2022-11-18T16:38:22.899Z,14.20
2022-11-18T16:43:49.620Z,14.23
2022-11-18T16:49:14.852Z,14.55
2022-11-18T16:54:44.765Z,11.90
2022-11-18T17:00:10.788Z,12.07
2022-11-18T17:05:34.922Z,14.02
2022-11-18T17:11:17.675Z,17.10
2022-11-18T17:16:44.350Z,14.98
2022-11-18T17:22:08.032Z,12.30
2022-11-18T17:27:38.819Z,12.15
2022-11-18T17:33:07.382Z,10.52
2022-11-18T17:38:31.981Z,10.93
2022-11-18T17:44:04.096Z,12.43
2022-11-18T17:49:59.729Z,12.32
2022-11-18T17:55:23.857Z,12.77
2022-11-18T18:00:49.739Z,15.07
2022-11-18T18:06:14.159Z,17.02
2022-11-18T18:11:38.073Z,15.65
2022-11-18T18:17:12.012Z,16.65
2022-11-18T18:22:42.659Z,17.40
2022-11-18T18:28:26.288Z,18.02
2022-11-18T18:34:22.228Z,19.60
2022-11-18T18:39:49.632Z,22.45
2022-11-18T18:45:35.522Z,21.67
2022-11-18T18:51:06.115Z,23.38
2022-11-18T18:56:33.621Z,22.52
2022-11-18T19:02:03.140Z,21.00
2022-11-18T19:07:53.296Z,19.15
2022-11-18T19:13:34.346Z,19.90
2022-11-18T19:19:47.151Z,17.05
2022-11-18T19:25:37.922Z,17.60
2022-11-18T19:31:18.996Z,17.58
2022-11-18T19:36:48.364Z,13.32
2022-11-18T19:42:20.419Z,14.83
2022-11-18T19:47:49.319Z,15.93
2022-11-18T19:53:33.756Z,16.13
2022-11-18T19:59:03.791Z,17.15
2022-11-18T20:04:33.083Z,17.13
2022-11-18T20:10:02.357Z,17.40
2022-11-18T20:15:32.658Z,19.63
2022-11-18T20:21:07.611Z,17.77
2022-11-18T20:26:39.287Z,19.17
2022-11-18T20:32:09.517Z,16.15
2022-11-18T20:37:38.134Z,17.73
2022-11-18T20:43:13.137Z,15.55
2022-11-18T20:48:43.742Z,12.13
2022-11-18T20:54:12.377Z,12.50
2022-11-18T20:59:41.380Z,11.90
2022-11-18T21:05:11.819Z,15.73
2022-11-18T21:10:41.777Z,15.73
2022-11-18T21:16:14.009Z,16.27
2022-11-18T21:21:49.067Z,16.58
2022-11-18T21:27:20.792Z,16.70
2022-11-18T21:32:49.287Z,15.32
2022-11-18T21:38:19.647Z,14.83
2022-11-18T21:44:05.014Z,14.85
2022-11-18T21:49:35.458Z,16.02
2022-11-18T21:55:06.320Z,15.23
2022-11-18T22:00:35.513Z,17.08
2022-11-18T22:11:35.595Z,17.38
2022-11-18T22:17:04.411Z,16.13
2022-11-18T22:22:33.167Z,14.20
2022-11-18T22:28:04.835Z,16.38
2022-11-18T22:33:42.255Z,14.55
2022-11-18T22:39:11.446Z,14.18
2022-11-18T22:44:41.895Z,14.80
2022-11-18T22:50:11.643Z,15.52
2022-11-18T22:55:40.221Z,15.60
2022-11-18T23:01:13.287Z,14.88
2022-11-18T23:06:43.683Z,16.42
2022-11-18T23:12:26.582Z,16.02
2022-11-18T23:17:57.729Z,17.48
2022-11-18T23:23:20.953Z,15.95
2022-11-18T23:28:44.798Z,17.05
2022-11-18T23:34:12.386Z,17.00
2022-11-18T23:39:37.302Z,17.67
2022-11-18T23:45:05.071Z,17.58
2022-11-18T23:50:39.268Z,16.30
2022-11-18T23:56:04.774Z,17.88
